Back to Top

Language: 

My Weather Underground Personal Weather Station Historical Data with Graphs...

Delerius Weather Station Historical Data
Daily Summary for February 11, 2017 Units:  Both    English   Metric
« Previous Day
Next Day »
Daily Weekly Monthly Yearly Custom
  High: Low: Average:
Temperature: 37.4 °F /  3 °C 34.2 °F /  1.2 °C 36.1 °F /  2.3 °C
Dew Point: 36.4 °F /  2.4 °C 30.7 °F /  -0.7 °C 34.8 °F /  1.6 °C
Humidity: 97 % 85 % 95 %
Wind Speed: 9.0 mph /  14.5 km/h - 4.9 mph /  7.9 km/h
Wind Gust: 14.0 mph /  22.5 km/h - -
Wind:- - ESE
Pressure: 30.33 in /  1027 hPa 30.27 in /  1024.9 hPa -
Precipitation: 0.15 in /  3.81 mm    
Historical Graphs
 
 
Tabular Data for February 11, 2017
Time Temperature Dew Point Pressure Wind Wind Speed Wind Gust Humidity Rainfall Rate (Hourly) solar Conditions
00:00 34.7 °F /  1.5 °C 30.7 °F /  -0.7 °C 30.31 in /  1026.3 hPa NNW 4.0 mph /  6.4 km/h 8.0 mph /  12.9 km/h 85 % 0.00 in /  0 mm 0 W/m2
00:05 34.7 °F /  1.5 °C 30.7 °F /  -0.7 °C 30.31 in /  1026.3 hPa West 5.0 mph /  8 km/h 11.0 mph /  17.7 km/h 85 % 0.00 in /  0 mm 0 W/m2
00:15 34.8 °F /  1.6 °C 30.8 °F /  -0.7 °C 30.31 in /  1026.3 hPa NW 6.0 mph /  9.7 km/h 7.0 mph /  11.3 km/h 85 % 0.00 in /  0 mm 0 W/m2
00:20 34.8 °F /  1.6 °C 30.8 °F /  -0.7 °C 30.31 in /  1026.3 hPa NNW 5.0 mph /  8 km/h 5.0 mph /  8 km/h 85 % 0.00 in /  0 mm 0 W/m2
00:25 34.8 °F /  1.6 °C 31.0 °F /  -0.6 °C 30.31 in /  1026.3 hPa NNW 5.0 mph /  8 km/h 6.0 mph /  9.7 km/h 86 % 0.00 in /  0 mm 0 W/m2
00:35 34.8 °F /  1.6 °C 31.0 °F /  -0.6 °C 30.31 in /  1026.3 hPa NNW 5.0 mph /  8 km/h 7.0 mph /  11.3 km/h 86 % 0.00 in /  0 mm 0 W/m2
00:40 34.8 °F /  1.6 °C 31.3 °F /  -0.4 °C 30.31 in /  1026.3 hPa NNE 5.0 mph /  8 km/h 7.0 mph /  11.3 km/h 87 % 0.00 in /  0 mm 0 W/m2
00:50 34.8 °F /  1.6 °C 31.3 °F /  -0.4 °C 30.31 in /  1026.3 hPa NNW 6.0 mph /  9.7 km/h 9.0 mph /  14.5 km/h 87 % 0.00 in /  0 mm 0 W/m2
00:55 34.8 °F /  1.6 °C 31.6 °F /  -0.2 °C 30.30 in /  1026 hPa NNW 6.0 mph /  9.7 km/h 9.0 mph /  14.5 km/h 88 % 0.00 in /  0 mm 0 W/m2
01:05 34.7 °F /  1.5 °C 31.5 °F /  -0.3 °C 30.30 in /  1026 hPa North 6.0 mph /  9.7 km/h 8.0 mph /  12.9 km/h 88 % 0.00 in /  0 mm 0 W/m2
01:10 34.8 °F /  1.6 °C 31.6 °F /  -0.2 °C 30.30 in /  1026 hPa NW 7.0 mph /  11.3 km/h 11.0 mph /  17.7 km/h 88 % 0.00 in /  0 mm 0 W/m2
01:20 34.8 °F /  1.6 °C 31.6 °F /  -0.2 °C 30.30 in /  1026 hPa NNW 6.0 mph /  9.7 km/h 6.0 mph /  9.7 km/h 88 % 0.00 in /  0 mm 0 W/m2
01:25 34.7 °F /  1.5 °C 31.8 °F /  -0.1 °C 30.30 in /  1026 hPa NNW 6.0 mph /  9.7 km/h 7.0 mph /  11.3 km/h 89 % 0.00 in /  0 mm 0 W/m2
01:30 34.7 °F /  1.5 °C 31.8 °F /  -0.1 °C 30.30 in /  1026 hPa NNW 6.0 mph /  9.7 km/h 6.0 mph /  9.7 km/h 89 % 0.00 in /  0 mm 0 W/m2
01:35 34.7 °F /  1.5 °C 31.8 °F /  -0.1 °C 30.30 in /  1026 hPa North 5.0 mph /  8 km/h 11.0 mph /  17.7 km/h 89 % 0.00 in /  0 mm 0 W/m2
01:40 34.8 °F /  1.6 °C 31.9 °F /  -0.1 °C 30.30 in /  1026 hPa NW 6.0 mph /  9.7 km/h 11.0 mph /  17.7 km/h 89 % 0.00 in /  0 mm 0 W/m2
01:50 34.8 °F /  1.6 °C 32.2 °F /  0.1 °C 30.29 in /  1025.6 hPa NNW 7.0 mph /  11.3 km/h 11.0 mph /  17.7 km/h 90 % 0.00 in /  0 mm 0 W/m2
02:00 34.8 °F /  1.6 °C 32.4 °F /  0.2 °C 30.29 in /  1025.6 hPa NW 7.0 mph /  11.3 km/h 7.0 mph /  11.3 km/h 91 % 0.00 in /  0 mm 0 W/m2
02:05 34.8 °F /  1.6 °C 32.4 °F /  0.2 °C 30.29 in /  1025.6 hPa NNW 7.0 mph /  11.3 km/h 10.0 mph /  16.1 km/h 91 % 0.00 in /  0 mm 0 W/m2
02:10 34.7 °F /  1.5 °C 32.3 °F /  0.2 °C 30.29 in /  1025.6 hPa NW 7.0 mph /  11.3 km/h 11.0 mph /  17.7 km/h 91 % 0.00 in /  0 mm 0 W/m2
02:20 34.6 °F /  1.4 °C 32.5 °F /  0.3 °C 30.29 in /  1025.6 hPa North 5.0 mph /  8 km/h 11.0 mph /  17.7 km/h 92 % 0.00 in /  0 mm 0 W/m2
02:30 34.5 °F /  1.4 °C 32.7 °F /  0.4 °C 30.28 in /  1025.3 hPa NNW 7.0 mph /  11.3 km/h 11.0 mph /  17.7 km/h 93 % 0.00 in /  0 mm 0 W/m2
02:35 34.5 °F /  1.4 °C 32.7 °F /  0.4 °C 30.28 in /  1025.3 hPa NNE 8.0 mph /  12.9 km/h 11.0 mph /  17.7 km/h 93 % 0.00 in /  0 mm 0 W/m2
02:40 34.5 °F /  1.4 °C 32.7 °F /  0.4 °C 30.28 in /  1025.3 hPa NNW 7.0 mph /  11.3 km/h 7.0 mph /  11.3 km/h 93 % 0.00 in /  0 mm 0 W/m2
02:45 34.5 °F /  1.4 °C 32.7 °F /  0.4 °C 30.28 in /  1025.3 hPa NNW 7.0 mph /  11.3 km/h 11.0 mph /  17.7 km/h 93 % 0.00 in /  0 mm 0 W/m2
02:50 34.4 °F /  1.3 °C 32.6 °F /  0.3 °C 30.28 in /  1025.3 hPa NW 7.0 mph /  11.3 km/h 11.0 mph /  17.7 km/h 93 % 0.00 in /  0 mm 0 W/m2
03:00 34.4 °F /  1.3 °C 32.9 °F /  0.5 °C 30.28 in /  1025.3 hPa NNW 6.0 mph /  9.7 km/h 6.0 mph /  9.7 km/h 94 % 0.00 in /  0 mm 0 W/m2
03:05 34.4 °F /  1.3 °C 32.9 °F /  0.5 °C 30.27 in /  1024.9 hPa NNW 7.0 mph /  11.3 km/h 7.0 mph /  11.3 km/h 94 % 0.00 in /  0 mm 0 W/m2
03:15 34.4 °F /  1.3 °C 32.9 °F /  0.5 °C 30.27 in /  1024.9 hPa NNW 6.0 mph /  9.7 km/h 10.0 mph /  16.1 km/h 94 % 0.00 in /  0 mm 0 W/m2
03:20 34.5 °F /  1.4 °C 33.0 °F /  0.6 °C 30.27 in /  1024.9 hPa NNW 7.0 mph /  11.3 km/h 7.0 mph /  11.3 km/h 94 % 0.00 in /  0 mm 0 W/m2
03:25 34.5 °F /  1.4 °C 33.0 °F /  0.6 °C 30.27 in /  1024.9 hPa NW 8.0 mph /  12.9 km/h 8.0 mph /  12.9 km/h 94 % 0.00 in /  0 mm 0 W/m2
03:30 34.5 °F /  1.4 °C 33.0 °F /  0.6 °C 30.27 in /  1024.9 hPa NNW 7.0 mph /  11.3 km/h 7.0 mph /  11.3 km/h 94 % 0.00 in /  0 mm 0 W/m2
03:35 34.4 °F /  1.3 °C 32.9 °F /  0.5 °C 30.27 in /  1024.9 hPa NW 7.0 mph /  11.3 km/h 8.0 mph /  12.9 km/h 94 % 0.00 in /  0 mm 0 W/m2
03:40 34.5 °F /  1.4 °C 33.2 °F /  0.7 °C 30.27 in /  1024.9 hPa NNW 7.0 mph /  11.3 km/h 7.0 mph /  11.3 km/h 95 % 0.00 in /  0 mm 0 W/m2
03:50 34.3 °F /  1.3 °C 33.0 °F /  0.6 °C 30.27 in /  1024.9 hPa NNW 7.0 mph /  11.3 km/h 7.0 mph /  11.3 km/h 95 % 0.00 in /  0 mm 0 W/m2
03:55 34.3 °F /  1.3 °C 33.0 °F /  0.6 °C 30.27 in /  1024.9 hPa NNW 7.0 mph /  11.3 km/h 8.0 mph /  12.9 km/h 95 % 0.00 in /  0 mm 0 W/m2
04:00 34.3 °F /  1.3 °C 33.0 °F /  0.6 °C 30.27 in /  1024.9 hPa NNW 6.0 mph /  9.7 km/h 6.0 mph /  9.7 km/h 95 % 0.00 in /  0 mm 0 W/m2
04:10 34.3 °F /  1.3 °C 33.0 °F /  0.6 °C 30.27 in /  1024.9 hPa NW 6.0 mph /  9.7 km/h 6.0 mph /  9.7 km/h 95 % 0.00 in /  0 mm 0 W/m2
04:15 34.3 °F /  1.3 °C 33.0 °F /  0.6 °C 30.27 in /  1024.9 hPa North 6.0 mph /  9.7 km/h 9.0 mph /  14.5 km/h 95 % 0.00 in /  0 mm 0 W/m2
04:25 34.3 °F /  1.3 °C 33.0 °F /  0.6 °C 30.27 in /  1024.9 hPa North 5.0 mph /  8 km/h 12.0 mph /  19.3 km/h 95 % 0.00 in /  0 mm 0 W/m2
04:30 34.2 °F /  1.2 °C 32.9 °F /  0.5 °C 30.27 in /  1024.9 hPa NNE 5.0 mph /  8 km/h 5.0 mph /  8 km/h 95 % 0.00 in /  0 mm 0 W/m2
04:35 34.2 °F /  1.2 °C 32.9 °F /  0.5 °C 30.27 in /  1024.9 hPa North 6.0 mph /  9.7 km/h 7.0 mph /  11.3 km/h 95 % 0.00 in /  0 mm 0 W/m2
04:40 34.2 °F /  1.2 °C 32.9 °F /  0.5 °C 30.27 in /  1024.9 hPa NNE 6.0 mph /  9.7 km/h 11.0 mph /  17.7 km/h 95 % 0.00 in /  0 mm 0 W/m2
04:45 34.2 °F /  1.2 °C 32.9 °F /  0.5 °C 30.27 in /  1024.9 hPa NNW 6.0 mph /  9.7 km/h 11.0 mph /  17.7 km/h 95 % 0.00 in /  0 mm 0 W/m2
04:50 34.2 °F /  1.2 °C 33.2 °F /  0.7 °C 30.28 in /  1025.3 hPa NNW 5.0 mph /  8 km/h 11.0 mph /  17.7 km/h 96 % 0.00 in /  0 mm 0 W/m2
04:55 34.2 °F /  1.2 °C 33.2 °F /  0.7 °C 30.28 in /  1025.3 hPa North 6.0 mph /  9.7 km/h 11.0 mph /  17.7 km/h 96 % 0.00 in /  0 mm 0 W/m2
05:00 34.2 °F /  1.2 °C 33.2 °F /  0.7 °C 30.27 in /  1024.9 hPa NNW 6.0 mph /  9.7 km/h 11.0 mph /  17.7 km/h 96 % 0.00 in /  0 mm 0 W/m2
05:10 34.4 °F /  1.3 °C 33.4 °F /  0.8 °C 30.28 in /  1025.3 hPa NNE 7.0 mph /  11.3 km/h 11.0 mph /  17.7 km/h 96 % 0.00 in /  0 mm 0 W/m2
05:20 34.5 °F /  1.4 °C 33.5 °F /  0.8 °C 30.28 in /  1025.3 hPa North 6.0 mph /  9.7 km/h 11.0 mph /  17.7 km/h 96 % 0.00 in /  0 mm 0 W/m2
05:25 34.6 °F /  1.4 °C 33.6 °F /  0.9 °C 30.28 in /  1025.3 hPa North 7.0 mph /  11.3 km/h 11.0 mph /  17.7 km/h 96 % 0.00 in /  0 mm 0 W/m2
05:30 34.7 °F /  1.5 °C 33.7 °F /  0.9 °C 30.28 in /  1025.3 hPa NW 7.0 mph /  11.3 km/h 11.0 mph /  17.7 km/h 96 % 0.00 in /  0 mm 0 W/m2
05:35 34.7 °F /  1.5 °C 33.7 °F /  0.9 °C 30.28 in /  1025.3 hPa NNW 7.0 mph /  11.3 km/h 12.0 mph /  19.3 km/h 96 % 0.00 in /  0 mm 0 W/m2
05:40 34.7 °F /  1.5 °C 33.7 °F /  0.9 °C 30.27 in /  1024.9 hPa NNW 7.0 mph /  11.3 km/h 11.0 mph /  17.7 km/h 96 % 0.00 in /  0 mm 0 W/m2
05:50 34.7 °F /  1.5 °C 33.7 °F /  0.9 °C 30.28 in /  1025.3 hPa North 8.0 mph /  12.9 km/h 11.0 mph /  17.7 km/h 96 % 0.00 in /  0 mm 0 W/m2
05:55 34.7 °F /  1.5 °C 33.7 °F /  0.9 °C 30.28 in /  1025.3 hPa North 8.0 mph /  12.9 km/h 11.0 mph /  17.7 km/h 96 % 0.00 in /  0 mm 0 W/m2
06:00 34.7 °F /  1.5 °C 33.7 °F /  0.9 °C 30.28 in /  1025.3 hPa North 7.0 mph /  11.3 km/h 7.0 mph /  11.3 km/h 96 % 0.00 in /  0 mm 0 W/m2
06:05 34.7 °F /  1.5 °C 33.7 °F /  0.9 °C 30.28 in /  1025.3 hPa NNE 7.0 mph /  11.3 km/h 11.0 mph /  17.7 km/h 96 % 0.00 in /  0 mm 0 W/m2
06:10 34.7 °F /  1.5 °C 33.7 °F /  0.9 °C 30.27 in /  1024.9 hPa North 7.0 mph /  11.3 km/h 11.0 mph /  17.7 km/h 96 % 0.00 in /  0 mm 0 W/m2
06:20 34.7 °F /  1.5 °C 33.7 °F /  0.9 °C 30.27 in /  1024.9 hPa North 6.0 mph /  9.7 km/h 6.0 mph /  9.7 km/h 96 % 0.00 in /  0 mm 0 W/m2
06:30 34.8 °F /  1.6 °C 33.8 °F /  1 °C 30.27 in /  1024.9 hPa NNW 5.0 mph /  8 km/h 5.0 mph /  8 km/h 96 % 0.00 in /  0 mm 0 W/m2
06:35 34.8 °F /  1.6 °C 33.8 °F /  1 °C 30.27 in /  1024.9 hPa North 4.0 mph /  6.4 km/h 11.0 mph /  17.7 km/h 96 % 0.00 in /  0 mm 0 W/m2
06:40 34.8 °F /  1.6 °C 33.8 °F /  1 °C 30.27 in /  1024.9 hPa North 5.0 mph /  8 km/h 11.0 mph /  17.7 km/h 96 % 0.00 in /  0 mm 0 W/m2
06:45 34.8 °F /  1.6 °C 33.8 °F /  1 °C 30.27 in /  1024.9 hPa NNW 4.0 mph /  6.4 km/h 11.0 mph /  17.7 km/h 96 % 0.00 in /  0 mm 0 W/m2
06:50 34.9 °F /  1.6 °C 33.9 °F /  1.1 °C 30.27 in /  1024.9 hPa NNW 5.0 mph /  8 km/h 11.0 mph /  17.7 km/h 96 % 0.00 in /  0 mm 0 W/m2
07:00 35.0 °F /  1.7 °C 34.0 °F /  1.1 °C 30.27 in /  1024.9 hPa NNE 5.0 mph /  8 km/h 5.0 mph /  8 km/h 96 % 0.00 in /  0 mm 0 W/m2
07:05 35.0 °F /  1.7 °C 34.0 °F /  1.1 °C 30.27 in /  1024.9 hPa NNE 4.0 mph /  6.4 km/h 7.0 mph /  11.3 km/h 96 % 0.00 in /  0 mm 0 W/m2
07:10 35.1 °F /  1.7 °C 34.1 °F /  1.2 °C 30.27 in /  1024.9 hPa NNW 5.0 mph /  8 km/h 11.0 mph /  17.7 km/h 96 % 0.00 in /  0 mm 0 W/m2
07:15 35.1 °F /  1.7 °C 34.1 °F /  1.2 °C 30.27 in /  1024.9 hPa North 6.0 mph /  9.7 km/h 11.0 mph /  17.7 km/h 96 % 0.00 in /  0 mm 0 W/m2
07:25 35.3 °F /  1.8 °C 34.3 °F /  1.3 °C 30.28 in /  1025.3 hPa NW 3.0 mph /  4.8 km/h 8.0 mph /  12.9 km/h 96 % 0.00 in /  0 mm 0 W/m2
07:35 35.4 °F /  1.9 °C 34.6 °F /  1.4 °C 30.28 in /  1025.3 hPa NE 4.0 mph /  6.4 km/h 11.0 mph /  17.7 km/h 97 % 0.00 in /  0 mm 0 W/m2
07:40 35.5 °F /  1.9 °C 34.7 °F /  1.5 °C 30.28 in /  1025.3 hPa North 4.0 mph /  6.4 km/h 11.0 mph /  17.7 km/h 97 % 0.00 in /  0 mm 0 W/m2
07:45 35.6 °F /  2 °C 34.8 °F /  1.6 °C 30.28 in /  1025.3 hPa NE 4.0 mph /  6.4 km/h 11.0 mph /  17.7 km/h 97 % 0.00 in /  0 mm 0 W/m2
07:50 35.6 °F /  2 °C 34.8 °F /  1.6 °C 30.28 in /  1025.3 hPa NNE 5.0 mph /  8 km/h 5.0 mph /  8 km/h 97 % 0.00 in /  0 mm 0 W/m2
07:55 35.7 °F /  2.1 °C 34.9 °F /  1.6 °C 30.28 in /  1025.3 hPa NNE 5.0 mph /  8 km/h 11.0 mph /  17.7 km/h 97 % 0.00 in /  0 mm 0 W/m2
08:05 35.7 °F /  2.1 °C 34.9 °F /  1.6 °C 30.29 in /  1025.6 hPa East 3.0 mph /  4.8 km/h 11.0 mph /  17.7 km/h 97 % 0.00 in /  0 mm 0 W/m2
08:10 35.7 °F /  2.1 °C 34.9 °F /  1.6 °C 30.29 in /  1025.6 hPa NNE 2.0 mph /  3.2 km/h 11.0 mph /  17.7 km/h 97 % 0.00 in /  0 mm 0 W/m2
08:15 35.8 °F /  2.1 °C 35.0 °F /  1.7 °C 30.29 in /  1025.6 hPa NNW 2.0 mph /  3.2 km/h 11.0 mph /  17.7 km/h 97 % 0.00 in /  0 mm 0 W/m2
08:25 35.7 °F /  2.1 °C 34.9 °F /  1.6 °C 30.29 in /  1025.6 hPa ENE 1.0 mph /  1.6 km/h 11.0 mph /  17.7 km/h 97 % 0.00 in /  0 mm 0 W/m2
08:30 35.7 °F /  2.1 °C 34.9 °F /  1.6 °C 30.30 in /  1026 hPa ENE 1.0 mph /  1.6 km/h 1.0 mph /  1.6 km/h 97 % 0.05 in /  1.27 mm 0 W/m2
08:40 35.6 °F /  2 °C 34.8 °F /  1.6 °C 30.30 in /  1026 hPa ENE 1.0 mph /  1.6 km/h 1.0 mph /  1.6 km/h 97 % 0.04 in /  1.02 mm 0 W/m2
08:45 35.6 °F /  2 °C 34.8 °F /  1.6 °C 30.30 in /  1026 hPa NE 2.0 mph /  3.2 km/h 2.0 mph /  3.2 km/h 97 % 0.04 in /  1.02 mm 0 W/m2
08:50 35.6 °F /  2 °C 34.8 °F /  1.6 °C 30.30 in /  1026 hPa NE 1.0 mph /  1.6 km/h 1.0 mph /  1.6 km/h 97 % 0.04 in /  1.02 mm 0 W/m2
08:55 35.6 °F /  2 °C 34.8 °F /  1.6 °C 30.30 in /  1026 hPa NE 1.0 mph /  1.6 km/h 11.0 mph /  17.7 km/h 97 % 0.04 in /  1.02 mm 0 W/m2
09:00 35.6 °F /  2 °C 34.8 °F /  1.6 °C 30.30 in /  1026 hPa Calm   11.0 mph /  17.7 km/h 97 % 0.00 in /  0 mm 5 W/m2
09:10 35.7 °F /  2.1 °C 34.9 °F /  1.6 °C 30.30 in /  1026 hPa ENE 1.0 mph /  1.6 km/h 1.0 mph /  1.6 km/h 97 % 0.00 in /  0 mm 5 W/m2
09:15 35.7 °F /  2.1 °C 34.9 °F /  1.6 °C 30.30 in /  1026 hPa ENE 1.0 mph /  1.6 km/h 11.0 mph /  17.7 km/h 97 % 0.00 in /  0 mm 5 W/m2
09:20 35.7 °F /  2.1 °C 34.9 °F /  1.6 °C 30.30 in /  1026 hPa NNE 1.0 mph /  1.6 km/h 11.0 mph /  17.7 km/h 97 % 0.04 in /  1.02 mm 5 W/m2
09:25 35.8 °F /  2.1 °C 35.0 °F /  1.7 °C 30.30 in /  1026 hPa North 2.0 mph /  3.2 km/h 11.0 mph /  17.7 km/h 97 % 0.04 in /  1.02 mm 9 W/m2
09:30 35.8 °F /  2.1 °C 35.0 °F /  1.7 °C 30.30 in /  1026 hPa NNE 2.0 mph /  3.2 km/h 11.0 mph /  17.7 km/h 97 % 0.04 in /  1.02 mm 7 W/m2
09:35 35.9 °F /  2.2 °C 35.1 °F /  1.7 °C 30.30 in /  1026 hPa NE 2.0 mph /  3.2 km/h 11.0 mph /  17.7 km/h 97 % 0.04 in /  1.02 mm 7 W/m2
09:40 36.0 °F /  2.2 °C 35.2 °F /  1.8 °C 30.30 in /  1026 hPa NE 2.0 mph /  3.2 km/h 11.0 mph /  17.7 km/h 97 % 0.00 in /  0 mm 7 W/m2
09:45 36.1 °F /  2.3 °C 35.3 °F /  1.8 °C 30.30 in /  1026 hPa NNE 2.0 mph /  3.2 km/h 11.0 mph /  17.7 km/h 97 % 0.00 in /  0 mm 9 W/m2
09:50 36.1 °F /  2.3 °C 35.3 °F /  1.8 °C 30.30 in /  1026 hPa ENE 3.0 mph /  4.8 km/h 11.0 mph /  17.7 km/h 97 % 0.00 in /  0 mm 7 W/m2
09:55 36.2 °F /  2.3 °C 35.4 °F /  1.9 °C 30.30 in /  1026 hPa ENE 3.0 mph /  4.8 km/h 11.0 mph /  17.7 km/h 97 % 0.00 in /  0 mm 7 W/m2
10:00 36.3 °F /  2.4 °C 35.5 °F /  1.9 °C 30.30 in /  1026 hPa East 3.0 mph /  4.8 km/h 3.0 mph /  4.8 km/h 97 % 0.00 in /  0 mm 9 W/m2
10:10 36.3 °F /  2.4 °C 35.5 °F /  1.9 °C 30.30 in /  1026 hPa NE 3.0 mph /  4.8 km/h 11.0 mph /  17.7 km/h 97 % 0.00 in /  0 mm 9 W/m2
10:15 36.3 °F /  2.4 °C 35.5 °F /  1.9 °C 30.30 in /  1026 hPa ENE 3.0 mph /  4.8 km/h 11.0 mph /  17.7 km/h 97 % 0.00 in /  0 mm 11 W/m2
10:25 36.3 °F /  2.4 °C 35.5 °F /  1.9 °C 30.30 in /  1026 hPa ENE 3.0 mph /  4.8 km/h 11.0 mph /  17.7 km/h 97 % 0.00 in /  0 mm 25 W/m2
10:35 36.4 °F /  2.4 °C 35.6 °F /  2 °C 30.30 in /  1026 hPa NNE 1.0 mph /  1.6 km/h 11.0 mph /  17.7 km/h 97 % 0.00 in /  0 mm 18 W/m2
10:40 36.4 °F /  2.4 °C 35.6 °F /  2 °C 30.30 in /  1026 hPa NNE 1.0 mph /  1.6 km/h 11.0 mph /  17.7 km/h 97 % 0.00 in /  0 mm 28 W/m2
10:45 36.5 °F /  2.5 °C 35.7 °F /  2.1 °C 30.30 in /  1026 hPa NNE 2.0 mph /  3.2 km/h 11.0 mph /  17.7 km/h 97 % 0.00 in /  0 mm 26 W/m2
10:50 36.6 °F /  2.6 °C 35.8 °F /  2.1 °C 30.30 in /  1026 hPa NE 2.0 mph /  3.2 km/h 11.0 mph /  17.7 km/h 97 % 0.00 in /  0 mm 32 W/m2
10:55 36.8 °F /  2.7 °C 36.0 °F /  2.2 °C 30.30 in /  1026 hPa NNE 2.0 mph /  3.2 km/h 11.0 mph /  17.7 km/h 97 % 0.00 in /  0 mm 23 W/m2
11:00 36.9 °F /  2.7 °C 36.1 °F /  2.3 °C 30.30 in /  1026 hPa NNE 2.0 mph /  3.2 km/h 2.0 mph /  3.2 km/h 97 % 0.00 in /  0 mm 26 W/m2
11:10 37.0 °F /  2.8 °C 36.2 °F /  2.3 °C 30.30 in /  1026 hPa ENE 3.0 mph /  4.8 km/h 3.0 mph /  4.8 km/h 97 % 0.00 in /  0 mm 14 W/m2
11:15 37.1 °F /  2.8 °C 36.3 °F /  2.4 °C 30.30 in /  1026 hPa NNW 4.0 mph /  6.4 km/h 4.0 mph /  6.4 km/h 97 % 0.00 in /  0 mm 12 W/m2
11:20 37.1 °F /  2.8 °C 36.3 °F /  2.4 °C 30.31 in /  1026.3 hPa NNE 4.0 mph /  6.4 km/h 11.0 mph /  17.7 km/h 97 % 0.00 in /  0 mm 12 W/m2
11:30 37.1 °F /  2.8 °C 36.3 °F /  2.4 °C 30.31 in /  1026.3 hPa East 4.0 mph /  6.4 km/h 4.0 mph /  6.4 km/h 97 % 0.00 in /  0 mm 23 W/m2
11:40 37.1 °F /  2.8 °C 36.3 °F /  2.4 °C 30.31 in /  1026.3 hPa ENE 2.0 mph /  3.2 km/h 11.0 mph /  17.7 km/h 97 % 0.00 in /  0 mm 26 W/m2
11:45 37.1 °F /  2.8 °C 36.3 °F /  2.4 °C 30.30 in /  1026 hPa ENE 2.0 mph /  3.2 km/h 11.0 mph /  17.7 km/h 97 % 0.00 in /  0 mm 19 W/m2
11:50 37.1 °F /  2.8 °C 36.3 °F /  2.4 °C 30.30 in /  1026 hPa ENE 3.0 mph /  4.8 km/h 3.0 mph /  4.8 km/h 97 % 0.00 in /  0 mm 21 W/m2
11:55 37.0 °F /  2.8 °C 36.2 °F /  2.3 °C 30.31 in /  1026.3 hPa NNE 4.0 mph /  6.4 km/h 6.0 mph /  9.7 km/h 97 % 0.00 in /  0 mm 19 W/m2
12:00 36.9 °F /  2.7 °C 35.9 °F /  2.2 °C 30.31 in /  1026.3 hPa NE 5.0 mph /  8 km/h 11.0 mph /  17.7 km/h 96 % 0.00 in /  0 mm 12 W/m2
12:05 36.8 °F /  2.7 °C 35.8 °F /  2.1 °C 30.30 in /  1026 hPa NE 5.0 mph /  8 km/h 11.0 mph /  17.7 km/h 96 % 0.00 in /  0 mm 26 W/m2
12:10 36.8 °F /  2.7 °C 35.8 °F /  2.1 °C 30.30 in /  1026 hPa ESE 5.0 mph /  8 km/h 5.0 mph /  8 km/h 96 % 0.00 in /  0 mm 30 W/m2
12:15 36.8 °F /  2.7 °C 35.8 °F /  2.1 °C 30.30 in /  1026 hPa North 4.0 mph /  6.4 km/h 11.0 mph /  17.7 km/h 96 % 0.00 in /  0 mm 28 W/m2
12:25 36.9 °F /  2.7 °C 35.9 °F /  2.2 °C 30.30 in /  1026 hPa Calm   11.0 mph /  17.7 km/h 96 % 0.00 in /  0 mm 23 W/m2
12:30 36.9 °F /  2.7 °C 35.9 °F /  2.2 °C 30.30 in /  1026 hPa NE 2.0 mph /  3.2 km/h 2.0 mph /  3.2 km/h 96 % 0.00 in /  0 mm 28 W/m2
12:40 36.8 °F /  2.7 °C 35.8 °F /  2.1 °C 30.30 in /  1026 hPa ENE 4.0 mph /  6.4 km/h 4.0 mph /  6.4 km/h 96 % 0.00 in /  0 mm 19 W/m2
12:45 36.8 °F /  2.7 °C 35.8 °F /  2.1 °C 30.30 in /  1026 hPa ENE 5.0 mph /  8 km/h 5.0 mph /  8 km/h 96 % 0.00 in /  0 mm 26 W/m2
12:50 36.7 °F /  2.6 °C 35.7 °F /  2.1 °C 30.30 in /  1026 hPa East 3.0 mph /  4.8 km/h 11.0 mph /  17.7 km/h 96 % 0.00 in /  0 mm 16 W/m2
13:00 36.6 °F /  2.6 °C 35.6 °F /  2 °C 30.30 in /  1026 hPa NNE 4.0 mph /  6.4 km/h 4.0 mph /  6.4 km/h 96 % 0.00 in /  0 mm 33 W/m2
13:05 36.5 °F /  2.5 °C 35.5 °F /  1.9 °C 30.30 in /  1026 hPa NE 3.0 mph /  4.8 km/h 5.0 mph /  8 km/h 96 % 0.00 in /  0 mm 35 W/m2
13:15 36.5 °F /  2.5 °C 35.5 °F /  1.9 °C 30.30 in /  1026 hPa North 4.0 mph /  6.4 km/h 11.0 mph /  17.7 km/h 96 % 0.00 in /  0 mm 30 W/m2
13:20 36.5 °F /  2.5 °C 35.5 °F /  1.9 °C 30.30 in /  1026 hPa NE 6.0 mph /  9.7 km/h 11.0 mph /  17.7 km/h 96 % 0.00 in /  0 mm 18 W/m2
13:25 36.4 °F /  2.4 °C 35.4 °F /  1.9 °C 30.30 in /  1026 hPa ENE 6.0 mph /  9.7 km/h 11.0 mph /  17.7 km/h 96 % 0.00 in /  0 mm 16 W/m2
13:30 36.4 °F /  2.4 °C 35.4 °F /  1.9 °C 30.30 in /  1026 hPa East 6.0 mph /  9.7 km/h 6.0 mph /  9.7 km/h 96 % 0.00 in /  0 mm 14 W/m2
13:40 36.3 °F /  2.4 °C 35.3 °F /  1.8 °C 30.30 in /  1026 hPa NE 5.0 mph /  8 km/h 5.0 mph /  8 km/h 96 % 0.00 in /  0 mm 18 W/m2
13:45 36.3 °F /  2.4 °C 35.3 °F /  1.8 °C 30.30 in /  1026 hPa ENE 5.0 mph /  8 km/h 11.0 mph /  17.7 km/h 96 % 0.00 in /  0 mm 12 W/m2
13:50 36.3 °F /  2.4 °C 35.3 °F /  1.8 °C 30.30 in /  1026 hPa NE 3.0 mph /  4.8 km/h 11.0 mph /  17.7 km/h 96 % 0.00 in /  0 mm 18 W/m2
13:55 36.3 °F /  2.4 °C 35.3 °F /  1.8 °C 30.30 in /  1026 hPa ENE 3.0 mph /  4.8 km/h 11.0 mph /  17.7 km/h 96 % 0.00 in /  0 mm 19 W/m2
14:00 36.3 °F /  2.4 °C 35.3 °F /  1.8 °C 30.30 in /  1026 hPa ENE 3.0 mph /  4.8 km/h 3.0 mph /  4.8 km/h 96 % 0.00 in /  0 mm 21 W/m2
14:05 36.3 °F /  2.4 °C 35.3 °F /  1.8 °C 30.30 in /  1026 hPa ESE 3.0 mph /  4.8 km/h 11.0 mph /  17.7 km/h 96 % 0.00 in /  0 mm 23 W/m2
14:10 36.3 °F /  2.4 °C 35.3 °F /  1.8 °C 30.30 in /  1026 hPa NNE 4.0 mph /  6.4 km/h 11.0 mph /  17.7 km/h 96 % 0.00 in /  0 mm 18 W/m2
14:20 36.5 °F /  2.5 °C 35.5 °F /  1.9 °C 30.30 in /  1026 hPa NE 4.0 mph /  6.4 km/h 11.0 mph /  17.7 km/h 96 % 0.00 in /  0 mm 11 W/m2
14:30 36.6 °F /  2.6 °C 35.6 °F /  2 °C 30.30 in /  1026 hPa NE 5.0 mph /  8 km/h 11.0 mph /  17.7 km/h 96 % 0.00 in /  0 mm 12 W/m2
14:35 36.6 °F /  2.6 °C 35.6 °F /  2 °C 30.30 in /  1026 hPa NE 5.0 mph /  8 km/h 11.0 mph /  17.7 km/h 96 % 0.00 in /  0 mm 12 W/m2
14:40 36.7 °F /  2.6 °C 35.7 °F /  2.1 °C 30.30 in /  1026 hPa NNE 6.0 mph /  9.7 km/h 6.0 mph /  9.7 km/h 96 % 0.00 in /  0 mm 16 W/m2
14:45 36.7 °F /  2.6 °C 35.7 °F /  2.1 °C 30.29 in /  1025.6 hPa North 6.0 mph /  9.7 km/h 9.0 mph /  14.5 km/h 96 % 0.00 in /  0 mm 16 W/m2
14:55 36.7 °F /  2.6 °C 35.7 °F /  2.1 °C 30.29 in /  1025.6 hPa East 6.0 mph /  9.7 km/h 7.0 mph /  11.3 km/h 96 % 0.00 in /  0 mm 14 W/m2
15:00 36.7 °F /  2.6 °C 35.7 °F /  2.1 °C 30.29 in /  1025.6 hPa ENE 6.0 mph /  9.7 km/h 11.0 mph /  17.7 km/h 96 % 0.00 in /  0 mm 12 W/m2
15:05 36.7 °F /  2.6 °C 35.7 °F /  2.1 °C 30.29 in /  1025.6 hPa East 6.0 mph /  9.7 km/h 11.0 mph /  17.7 km/h 96 % 0.00 in /  0 mm 11 W/m2
15:10 36.8 °F /  2.7 °C 35.8 °F /  2.1 °C 30.29 in /  1025.6 hPa East 5.0 mph /  8 km/h 11.0 mph /  17.7 km/h 96 % 0.00 in /  0 mm 9 W/m2
15:15 36.8 °F /  2.7 °C 35.8 °F /  2.1 °C 30.29 in /  1025.6 hPa ENE 5.0 mph /  8 km/h 11.0 mph /  17.7 km/h 96 % 0.00 in /  0 mm 9 W/m2
15:20 36.8 °F /  2.7 °C 35.8 °F /  2.1 °C 30.29 in /  1025.6 hPa East 4.0 mph /  6.4 km/h 4.0 mph /  6.4 km/h 96 % 0.00 in /  0 mm 9 W/m2
15:25 36.8 °F /  2.7 °C 35.8 °F /  2.1 °C 30.29 in /  1025.6 hPa NE 4.0 mph /  6.4 km/h 5.0 mph /  8 km/h 96 % 0.00 in /  0 mm 5 W/m2
15:35 36.8 °F /  2.7 °C 35.8 °F /  2.1 °C 30.29 in /  1025.6 hPa East 3.0 mph /  4.8 km/h 11.0 mph /  17.7 km/h 96 % 0.00 in /  0 mm 7 W/m2
15:40 36.9 °F /  2.7 °C 35.9 °F /  2.2 °C 30.29 in /  1025.6 hPa ENE 3.0 mph /  4.8 km/h 11.0 mph /  17.7 km/h 96 % 0.00 in /  0 mm 5 W/m2
15:50 36.9 °F /  2.7 °C 35.9 °F /  2.2 °C 30.30 in /  1026 hPa ENE 3.0 mph /  4.8 km/h 3.0 mph /  4.8 km/h 96 % 0.00 in /  0 mm 9 W/m2
15:55 36.9 °F /  2.7 °C 35.9 °F /  2.2 °C 30.30 in /  1026 hPa NE 1.0 mph /  1.6 km/h 11.0 mph /  17.7 km/h 96 % 0.00 in /  0 mm 12 W/m2
16:05 37.0 °F /  2.8 °C 36.0 °F /  2.2 °C 30.30 in /  1026 hPa NE 1.0 mph /  1.6 km/h 11.0 mph /  17.7 km/h 96 % 0.00 in /  0 mm 9 W/m2
16:10 37.1 °F /  2.8 °C 36.1 °F /  2.3 °C 30.29 in /  1025.6 hPa NNE 3.0 mph /  4.8 km/h 11.0 mph /  17.7 km/h 96 % 0.00 in /  0 mm 12 W/m2
16:15 37.2 °F /  2.9 °C 36.2 °F /  2.3 °C 30.30 in /  1026 hPa NNE 5.0 mph /  8 km/h 11.0 mph /  17.7 km/h 96 % 0.00 in /  0 mm 14 W/m2
16:20 37.2 °F /  2.9 °C 36.2 °F /  2.3 °C 30.29 in /  1025.6 hPa NE 6.0 mph /  9.7 km/h 11.0 mph /  17.7 km/h 96 % 0.00 in /  0 mm 9 W/m2
16:30 37.1 °F /  2.8 °C 36.1 °F /  2.3 °C 30.29 in /  1025.6 hPa NE 5.0 mph /  8 km/h 11.0 mph /  17.7 km/h 96 % 0.00 in /  0 mm 5 W/m2
16:35 37.1 °F /  2.8 °C 36.1 °F /  2.3 °C 30.29 in /  1025.6 hPa East 5.0 mph /  8 km/h 11.0 mph /  17.7 km/h 96 % 0.00 in /  0 mm 7 W/m2
16:40 37.1 °F /  2.8 °C 36.1 °F /  2.3 °C 30.30 in /  1026 hPa NE 5.0 mph /  8 km/h 5.0 mph /  8 km/h 96 % 0.00 in /  0 mm 0 W/m2
16:45 37.1 °F /  2.8 °C 36.1 °F /  2.3 °C 30.30 in /  1026 hPa NNE 5.0 mph /  8 km/h 11.0 mph /  17.7 km/h 96 % 0.00 in /  0 mm 0 W/m2
16:50 37.1 °F /  2.8 °C 36.1 °F /  2.3 °C 30.30 in /  1026 hPa NNE 5.0 mph /  8 km/h 11.0 mph /  17.7 km/h 96 % 0.00 in /  0 mm 0 W/m2
16:55 37.1 °F /  2.8 °C 36.1 °F /  2.3 °C 30.30 in /  1026 hPa NE 6.0 mph /  9.7 km/h 11.0 mph /  17.7 km/h 96 % 0.00 in /  0 mm 0 W/m2
17:05 37.2 °F /  2.9 °C 36.2 °F /  2.3 °C 30.30 in /  1026 hPa ENE 5.0 mph /  8 km/h 11.0 mph /  17.7 km/h 96 % 0.00 in /  0 mm 0 W/m2
17:10 37.2 °F /  2.9 °C 36.2 °F /  2.3 °C 30.30 in /  1026 hPa ESE 3.0 mph /  4.8 km/h 3.0 mph /  4.8 km/h 96 % 0.00 in /  0 mm 0 W/m2
17:15 37.2 °F /  2.9 °C 36.2 °F /  2.3 °C 30.30 in /  1026 hPa ENE 2.0 mph /  3.2 km/h 11.0 mph /  17.7 km/h 96 % 0.00 in /  0 mm 0 W/m2
17:20 37.3 °F /  2.9 °C 36.3 °F /  2.4 °C 30.30 in /  1026 hPa North 3.0 mph /  4.8 km/h 11.0 mph /  17.7 km/h 96 % 0.00 in /  0 mm 0 W/m2
17:25 37.3 °F /  2.9 °C 36.3 °F /  2.4 °C 30.30 in /  1026 hPa ENE 3.0 mph /  4.8 km/h 11.0 mph /  17.7 km/h 96 % 0.00 in /  0 mm 0 W/m2
17:35 37.3 °F /  2.9 °C 36.3 °F /  2.4 °C 30.30 in /  1026 hPa NNE 3.0 mph /  4.8 km/h 5.0 mph /  8 km/h 96 % 0.00 in /  0 mm 0 W/m2
17:40 37.3 °F /  2.9 °C 36.3 °F /  2.4 °C 30.30 in /  1026 hPa NE 4.0 mph /  6.4 km/h 11.0 mph /  17.7 km/h 96 % 0.00 in /  0 mm 0 W/m2
17:45 37.2 °F /  2.9 °C 36.2 °F /  2.3 °C 30.30 in /  1026 hPa ENE 6.0 mph /  9.7 km/h 11.0 mph /  17.7 km/h 96 % 0.00 in /  0 mm 0 W/m2
17:55 37.2 °F /  2.9 °C 36.2 °F /  2.3 °C 30.31 in /  1026.3 hPa NE 5.0 mph /  8 km/h 11.0 mph /  17.7 km/h 96 % 0.00 in /  0 mm 0 W/m2
18:00 37.2 °F /  2.9 °C 36.2 °F /  2.3 °C 30.31 in /  1026.3 hPa NNE 5.0 mph /  8 km/h 11.0 mph /  17.7 km/h 96 % 0.00 in /  0 mm 0 W/m2
18:05 37.2 °F /  2.9 °C 36.2 °F /  2.3 °C 30.31 in /  1026.3 hPa NE 6.0 mph /  9.7 km/h 11.0 mph /  17.7 km/h 96 % 0.00 in /  0 mm 0 W/m2
18:10 37.1 °F /  2.8 °C 36.1 °F /  2.3 °C 30.31 in /  1026.3 hPa NNE 6.0 mph /  9.7 km/h 6.0 mph /  9.7 km/h 96 % 0.00 in /  0 mm 0 W/m2
18:15 37.1 °F /  2.8 °C 36.1 °F /  2.3 °C 30.31 in /  1026.3 hPa North 3.0 mph /  4.8 km/h 11.0 mph /  17.7 km/h 96 % 0.00 in /  0 mm 0 W/m2
18:20 37.1 °F /  2.8 °C 35.8 °F /  2.1 °C 30.31 in /  1026.3 hPa North 2.0 mph /  3.2 km/h 11.0 mph /  17.7 km/h 95 % 0.00 in /  0 mm 0 W/m2
18:30 37.0 °F /  2.8 °C 35.7 °F /  2.1 °C 30.31 in /  1026.3 hPa NNE 3.0 mph /  4.8 km/h 11.0 mph /  17.7 km/h 95 % 0.00 in /  0 mm 0 W/m2
18:40 37.0 °F /  2.8 °C 36.0 °F /  2.2 °C 30.31 in /  1026.3 hPa North 5.0 mph /  8 km/h 11.0 mph /  17.7 km/h 96 % 0.00 in /  0 mm 0 W/m2
18:45 37.0 °F /  2.8 °C 35.7 °F /  2.1 °C 30.31 in /  1026.3 hPa NE 3.0 mph /  4.8 km/h 11.0 mph /  17.7 km/h 95 % 0.00 in /  0 mm 0 W/m2
18:50 37.0 °F /  2.8 °C 35.7 °F /  2.1 °C 30.31 in /  1026.3 hPa NNE 4.0 mph /  6.4 km/h 11.0 mph /  17.7 km/h 95 % 0.00 in /  0 mm 0 W/m2
18:55 37.0 °F /  2.8 °C 35.7 °F /  2.1 °C 30.31 in /  1026.3 hPa NE 5.0 mph /  8 km/h 11.0 mph /  17.7 km/h 95 % 0.00 in /  0 mm 0 W/m2
19:00 36.9 °F /  2.7 °C 35.6 °F /  2 °C 30.31 in /  1026.3 hPa NNE 4.0 mph /  6.4 km/h 11.0 mph /  17.7 km/h 95 % 0.00 in /  0 mm 0 W/m2
19:10 36.9 °F /  2.7 °C 35.6 °F /  2 °C 30.31 in /  1026.3 hPa NE 3.0 mph /  4.8 km/h 3.0 mph /  4.8 km/h 95 % 0.00 in /  0 mm 0 W/m2
19:15 36.9 °F /  2.7 °C 35.6 °F /  2 °C 30.31 in /  1026.3 hPa NE 3.0 mph /  4.8 km/h 11.0 mph /  17.7 km/h 95 % 0.00 in /  0 mm 0 W/m2
19:20 36.9 °F /  2.7 °C 35.6 °F /  2 °C 30.31 in /  1026.3 hPa NE 3.0 mph /  4.8 km/h 11.0 mph /  17.7 km/h 95 % 0.00 in /  0 mm 0 W/m2
19:25 37.0 °F /  2.8 °C 35.7 °F /  2.1 °C 30.31 in /  1026.3 hPa NE 4.0 mph /  6.4 km/h 11.0 mph /  17.7 km/h 95 % 0.00 in /  0 mm 0 W/m2
19:30 36.9 °F /  2.7 °C 35.6 °F /  2 °C 30.32 in /  1026.6 hPa ESE 5.0 mph /  8 km/h 5.0 mph /  8 km/h 95 % 0.00 in /  0 mm 0 W/m2
19:40 36.9 °F /  2.7 °C 35.6 °F /  2 °C 30.32 in /  1026.6 hPa NNE 4.0 mph /  6.4 km/h 11.0 mph /  17.7 km/h 95 % 0.00 in /  0 mm 0 W/m2
19:50 36.9 °F /  2.7 °C 35.6 °F /  2 °C 30.32 in /  1026.6 hPa NNE 6.0 mph /  9.7 km/h 12.0 mph /  19.3 km/h 95 % 0.00 in /  0 mm 0 W/m2
19:55 36.9 °F /  2.7 °C 35.6 °F /  2 °C 30.32 in /  1026.6 hPa NE 7.0 mph /  11.3 km/h 12.0 mph /  19.3 km/h 95 % 0.00 in /  0 mm 0 W/m2
20:00 36.9 °F /  2.7 °C 35.6 °F /  2 °C 30.32 in /  1026.6 hPa NNE 7.0 mph /  11.3 km/h 7.0 mph /  11.3 km/h 95 % 0.00 in /  0 mm 0 W/m2
20:05 36.9 °F /  2.7 °C 35.9 °F /  2.2 °C 30.32 in /  1026.6 hPa NNE 7.0 mph /  11.3 km/h 9.0 mph /  14.5 km/h 96 % 0.00 in /  0 mm 0 W/m2
20:10 36.9 °F /  2.7 °C 35.9 °F /  2.2 °C 30.32 in /  1026.6 hPa NE 6.0 mph /  9.7 km/h 11.0 mph /  17.7 km/h 96 % 0.00 in /  0 mm 0 W/m2
20:15 36.9 °F /  2.7 °C 35.9 °F /  2.2 °C 30.32 in /  1026.6 hPa NE 5.0 mph /  8 km/h 11.0 mph /  17.7 km/h 96 % 0.00 in /  0 mm 0 W/m2
20:20 36.9 °F /  2.7 °C 35.9 °F /  2.2 °C 30.32 in /  1026.6 hPa ENE 5.0 mph /  8 km/h 5.0 mph /  8 km/h 96 % 0.00 in /  0 mm 0 W/m2
20:25 36.9 °F /  2.7 °C 35.9 °F /  2.2 °C 30.32 in /  1026.6 hPa East 5.0 mph /  8 km/h 11.0 mph /  17.7 km/h 96 % 0.00 in /  0 mm 0 W/m2
20:35 37.0 °F /  2.8 °C 36.0 °F /  2.2 °C 30.32 in /  1026.6 hPa ENE 6.0 mph /  9.7 km/h 11.0 mph /  17.7 km/h 96 % 0.00 in /  0 mm 0 W/m2
20:40 37.0 °F /  2.8 °C 36.0 °F /  2.2 °C 30.31 in /  1026.3 hPa NE 5.0 mph /  8 km/h 11.0 mph /  17.7 km/h 96 % 0.00 in /  0 mm 0 W/m2
20:50 37.1 °F /  2.8 °C 36.1 °F /  2.3 °C 30.31 in /  1026.3 hPa NE 7.0 mph /  11.3 km/h 14.0 mph /  22.5 km/h 96 % 0.00 in /  0 mm 0 W/m2
20:55 37.2 °F /  2.9 °C 36.2 °F /  2.3 °C 30.31 in /  1026.3 hPa NE 7.0 mph /  11.3 km/h 14.0 mph /  22.5 km/h 96 % 0.00 in /  0 mm 0 W/m2
21:00 37.2 °F /  2.9 °C 36.2 °F /  2.3 °C 30.31 in /  1026.3 hPa NNE 7.0 mph /  11.3 km/h 11.0 mph /  17.7 km/h 96 % 0.00 in /  0 mm 0 W/m2
21:05 37.3 °F /  2.9 °C 36.3 °F /  2.4 °C 30.31 in /  1026.3 hPa NNE 7.0 mph /  11.3 km/h 11.0 mph /  17.7 km/h 96 % 0.00 in /  0 mm 0 W/m2
21:10 37.3 °F /  2.9 °C 36.3 °F /  2.4 °C 30.31 in /  1026.3 hPa NNE 7.0 mph /  11.3 km/h 11.0 mph /  17.7 km/h 96 % 0.00 in /  0 mm 0 W/m2
21:20 37.4 °F /  3 °C 36.4 °F /  2.4 °C 30.32 in /  1026.6 hPa NE 4.0 mph /  6.4 km/h 11.0 mph /  17.7 km/h 96 % 0.00 in /  0 mm 0 W/m2
21:35 37.4 °F /  3 °C 36.4 °F /  2.4 °C 30.32 in /  1026.6 hPa East 7.0 mph /  11.3 km/h 11.0 mph /  17.7 km/h 96 % 0.00 in /  0 mm 0 W/m2
21:40 37.4 °F /  3 °C 36.4 °F /  2.4 °C 30.32 in /  1026.6 hPa NE 7.0 mph /  11.3 km/h 7.0 mph /  11.3 km/h 96 % 0.00 in /  0 mm 0 W/m2
21:45 37.4 °F /  3 °C 36.4 °F /  2.4 °C 30.32 in /  1026.6 hPa ENE 8.0 mph /  12.9 km/h 10.0 mph /  16.1 km/h 96 % 0.00 in /  0 mm 0 W/m2
21:50 37.4 °F /  3 °C 36.4 °F /  2.4 °C 30.32 in /  1026.6 hPa ESE 9.0 mph /  14.5 km/h 11.0 mph /  17.7 km/h 96 % 0.00 in /  0 mm 0 W/m2
21:55 37.4 °F /  3 °C 36.4 °F /  2.4 °C 30.32 in /  1026.6 hPa East 7.0 mph /  11.3 km/h 11.0 mph /  17.7 km/h 96 % 0.00 in /  0 mm 0 W/m2
22:00 37.4 °F /  3 °C 36.4 °F /  2.4 °C 30.32 in /  1026.6 hPa NE 6.0 mph /  9.7 km/h 11.0 mph /  17.7 km/h 96 % 0.00 in /  0 mm 0 W/m2
22:10 37.2 °F /  2.9 °C 36.2 °F /  2.3 °C 30.32 in /  1026.6 hPa ENE 8.0 mph /  12.9 km/h 11.0 mph /  17.7 km/h 96 % 0.00 in /  0 mm 0 W/m2
22:15 37.2 °F /  2.9 °C 36.2 °F /  2.3 °C 30.32 in /  1026.6 hPa ENE 9.0 mph /  14.5 km/h 11.0 mph /  17.7 km/h 96 % 0.00 in /  0 mm 0 W/m2
22:20 37.2 °F /  2.9 °C 36.2 °F /  2.3 °C 30.32 in /  1026.6 hPa NNE 8.0 mph /  12.9 km/h 11.0 mph /  17.7 km/h 96 % 0.00 in /  0 mm 0 W/m2
22:30 37.2 °F /  2.9 °C 36.2 °F /  2.3 °C 30.32 in /  1026.6 hPa East 6.0 mph /  9.7 km/h 11.0 mph /  17.7 km/h 96 % 0.00 in /  0 mm 0 W/m2
22:35 37.2 °F /  2.9 °C 36.2 °F /  2.3 °C 30.32 in /  1026.6 hPa NE 6.0 mph /  9.7 km/h 11.0 mph /  17.7 km/h 96 % 0.00 in /  0 mm 0 W/m2
22:40 37.1 °F /  2.8 °C 36.1 °F /  2.3 °C 30.33 in /  1027 hPa NNE 7.0 mph /  11.3 km/h 11.0 mph /  17.7 km/h 96 % 0.00 in /  0 mm 0 W/m2
22:45 37.1 °F /  2.8 °C 36.1 °F /  2.3 °C 30.32 in /  1026.6 hPa ENE 8.0 mph /  12.9 km/h 11.0 mph /  17.7 km/h 96 % 0.00 in /  0 mm 0 W/m2
22:55 37.0 °F /  2.8 °C 36.0 °F /  2.2 °C 30.33 in /  1027 hPa ENE 7.0 mph /  11.3 km/h 9.0 mph /  14.5 km/h 96 % 0.00 in /  0 mm 0 W/m2
23:00 37.0 °F /  2.8 °C 36.0 °F /  2.2 °C 30.33 in /  1027 hPa East 7.0 mph /  11.3 km/h 11.0 mph /  17.7 km/h 96 % 0.00 in /  0 mm 0 W/m2
23:05 36.9 °F /  2.7 °C 35.9 °F /  2.2 °C 30.33 in /  1027 hPa East 8.0 mph /  12.9 km/h 11.0 mph /  17.7 km/h 96 % 0.00 in /  0 mm 0 W/m2
23:10 36.9 °F /  2.7 °C 35.9 °F /  2.2 °C 30.33 in /  1027 hPa ENE 9.0 mph /  14.5 km/h 11.0 mph /  17.7 km/h 96 % 0.00 in /  0 mm 0 W/m2
23:15 36.9 °F /  2.7 °C 35.9 °F /  2.2 °C 30.33 in /  1027 hPa NE 8.0 mph /  12.9 km/h 11.0 mph /  17.7 km/h 96 % 0.00 in /  0 mm 0 W/m2
23:20 36.8 °F /  2.7 °C 35.8 °F /  2.1 °C 30.33 in /  1027 hPa East 6.0 mph /  9.7 km/h 11.0 mph /  17.7 km/h 96 % 0.00 in /  0 mm 0 W/m2
23:25 36.8 °F /  2.7 °C 35.8 °F /  2.1 °C 30.33 in /  1027 hPa ESE 6.0 mph /  9.7 km/h 11.0 mph /  17.7 km/h 96 % 0.00 in /  0 mm 0 W/m2
23:35 36.7 °F /  2.6 °C 35.7 °F /  2.1 °C 30.33 in /  1027 hPa East 6.0 mph /  9.7 km/h 11.0 mph /  17.7 km/h 96 % 0.00 in /  0 mm 0 W/m2
23:40 36.7 °F /  2.6 °C 35.7 °F /  2.1 °C 30.33 in /  1027 hPa NE 6.0 mph /  9.7 km/h 6.0 mph /  9.7 km/h 96 % 0.00 in /  0 mm 0 W/m2
23:45 36.7 °F /  2.6 °C 35.7 °F /  2.1 °C 30.33 in /  1027 hPa NE 6.0 mph /  9.7 km/h 8.0 mph /  12.9 km/h 96 % 0.00 in /  0 mm 0 W/m2
23:50 36.6 °F /  2.6 °C 35.6 °F /  2 °C 30.33 in /  1027 hPa East 6.0 mph /  9.7 km/h 6.0 mph /  9.7 km/h 96 % 0.00 in /  0 mm 0 W/m2
23:55 36.6 °F /  2.6 °C 35.6 °F /  2 °C 30.33 in /  1027 hPa ENE 7.0 mph /  11.3 km/h 11.0 mph /  17.7 km/h 96 % 0.00 in /  0 mm 0 W/m2
Delerius-Weather
Compliments of Weather Underground - 2 mb

Data updates at regular intervals.